Time;durP1;ratioP1;P1;durP2;ratioP2;P2;SDS_P1;SDS_P2;PMS_P1;PMS_P2;Temp;Humidity;BMP_temperature;BMP_pressure;BME280_temperature;BME280_humidity;BME280_pressure;Samples;Min_cycle;Max_cycle;Signal;HPM_P1;HPM_P2
2023/04/27 00:00:43;;;;;;;1.60;1.20;;;7.00;67.70;;;;;;5008264;28;20030;-68
2023/04/27 00:03:09;;;;;;;0.70;0.70;;;6.90;67.70;;;;;;5005514;28;20405;-68
2023/04/27 00:05:37;;;;;;;2.40;1.10;;;6.90;67.70;;;;;;5006454;28;20141;-68
2023/04/27 00:08:04;;;;;;;1.38;0.95;;;6.90;67.90;;;;;;5007830;28;20028;-68
2023/04/27 00:10:30;;;;;;;5.25;0.90;;;6.80;67.80;;;;;;4998580;28;20038;-68
2023/04/27 00:12:56;;;;;;;1.55;0.98;;;6.80;67.90;;;;;;5008648;28;20034;-72
2023/04/27 00:15:21;;;;;;;0.95;0.68;;;6.80;68.00;;;;;;4988085;28;20037;-68
2023/04/27 00:17:47;;;;;;;7.70;1.30;;;6.70;68.00;;;;;;5004494;28;20037;-68
2023/04/27 00:20:13;;;;;;;1.25;0.68;;;6.70;68.10;;;;;;5004786;28;20033;-68
2023/04/27 00:22:39;;;;;;;0.93;0.80;;;6.70;68.10;;;;;;5004677;28;20037;-72
2023/04/27 00:25:06;;;;;;;1.35;0.70;;;6.70;68.10;;;;;;5005521;28;20026;-73
2023/04/27 00:27:31;;;;;;;1.00;0.88;;;6.70;68.10;;;;;;5006808;28;20116;-73
2023/04/27 00:29:57;;;;;;;3.25;1.20;;;6.60;68.20;;;;;;5009858;28;20104;-72
2023/04/27 00:32:23;;;;;;;1.23;0.98;;;6.60;68.30;;;;;;5009784;28;20432;-73
2023/04/27 00:34:48;;;;;;;2.88;1.02;;;6.60;68.40;;;;;;5000947;28;20029;-68
2023/04/27 00:37:14;;;;;;;0.93;0.63;;;6.60;68.50;;;;;;4976968;28;20030;-68
2023/04/27 00:39:40;;;;;;;9.00;1.20;;;6.50;68.50;;;;;;5005586;28;20097;-68
2023/04/27 00:42:10;;;;;;;1.30;0.95;;;6.50;68.60;;;;;;4992005;28;20037;-68
2023/04/27 00:44:35;;;;;;;1.50;1.05;;;6.50;68.60;;;;;;5003869;28;20436;-68
2023/04/27 00:47:01;;;;;;;1.05;0.80;;;6.50;68.70;;;;;;4999160;28;20137;-68
2023/04/27 00:49:28;;;;;;;1.13;0.82;;;6.40;68.80;;;;;;4988908;28;20499;-68
2023/04/27 00:51:54;;;;;;;2.05;0.80;;;6.40;69.60;;;;;;4973361;28;20080;-66
2023/04/27 00:54:21;;;;;;;1.30;1.05;;;6.40;69.00;;;;;;5007246;28;20027;-69
2023/04/27 00:56:48;;;;;;;1.40;0.93;;;6.30;69.10;;;;;;5004602;28;20388;-69
2023/04/27 00:59:15;;;;;;;2.05;1.13;;;6.30;69.20;;;;;;5006989;28;20481;-67
2023/04/27 01:01:40;;;;;;;1.23;1.10;;;6.30;69.20;;;;;;4990617;28;20030;-67
2023/04/27 01:04:06;;;;;;;1.00;0.85;;;6.20;69.20;;;;;;5006010;28;20030;-67
2023/04/27 01:06:32;;;;;;;2.03;1.10;;;6.20;69.20;;;;;;5008123;28;20025;-72
2023/04/27 01:08:57;;;;;;;1.88;1.17;;;6.20;69.30;;;;;;5006881;28;20065;-72
2023/04/27 01:11:23;;;;;;;1.10;0.85;;;6.20;69.40;;;;;;4990748;28;20033;-71
2023/04/27 01:13:49;;;;;;;1.27;1.02;;;6.20;69.40;;;;;;5006145;28;20022;-68
2023/04/27 01:16:17;;;;;;;1.77;1.05;;;6.10;69.60;;;;;;5008533;28;20030;-67
2023/04/27 01:18:43;;;;;;;1.40;0.98;;;6.10;69.70;;;;;;5005521;28;20105;-72
2023/04/27 01:21:09;;;;;;;0.85;0.80;;;6.10;69.80;;;;;;5007511;28;20109;-72
2023/04/27 01:23:35;;;;;;;2.15;1.00;;;6.00;69.80;;;;;;5003891;28;20042;-72
2023/04/27 01:26:00;;;;;;;1.40;1.02;;;6.00;69.90;;;;;;5007528;28;20100;-72
2023/04/27 01:28:26;;;;;;;1.98;0.90;;;6.00;70.00;;;;;;5007696;28;20108;-72
2023/04/27 01:30:52;;;;;;;0.80;0.80;;;6.00;70.00;;;;;;5007258;28;20029;-72
2023/04/27 01:33:17;;;;;;;1.73;1.27;;;5.90;70.00;;;;;;4989791;28;20144;-72
2023/04/27 01:35:43;;;;;;;1.13;1.00;;;5.90;70.00;;;;;;4972237;28;20482;-72
2023/04/27 01:38:09;;;;;;;2.55;0.85;;;5.90;70.10;;;;;;5006316;28;20030;-71
2023/04/27 01:40:34;;;;;;;0.75;0.75;;;5.90;70.10;;;;;;5000756;28;20379;-71
2023/04/27 01:43:00;;;;;;;1.40;0.68;;;5.90;70.20;;;;;;5004754;28;20058;-71
2023/04/27 01:45:26;;;;;;;1.83;1.10;;;5.80;70.20;;;;;;4989235;28;20045;-71
2023/04/27 01:47:52;;;;;;;3.63;1.27;;;5.80;70.50;;;;;;4988233;28;20034;-67
2023/04/27 01:50:18;;;;;;;2.33;1.35;;;5.70;70.50;;;;;;5002470;28;20095;-71
2023/04/27 01:52:44;;;;;;;1.30;0.82;;;5.80;70.60;;;;;;4987191;28;20153;-71
2023/04/27 01:55:10;;;;;;;1.02;0.90;;;5.70;70.70;;;;;;4990287;28;20456;-71
2023/04/27 01:57:35;;;;;;;0.90;0.82;;;5.70;70.70;;;;;;5007286;28;20481;-71
2023/04/27 02:00:01;;;;;;;1.02;0.77;;;5.70;70.80;;;;;;5009211;28;20106;-71
2023/04/27 02:02:27;;;;;;;3.15;0.75;;;5.60;70.70;;;;;;5008448;28;20056;-71
2023/04/27 02:04:52;;;;;;;0.90;0.77;;;5.60;70.80;;;;;;5008445;28;20022;-72
2023/04/27 02:07:18;;;;;;;0.93;0.90;;;5.60;70.90;;;;;;4991760;28;20485;-72
2023/04/27 02:09:44;;;;;;;1.33;0.90;;;5.50;70.90;;;;;;5007069;28;20026;-72
2023/04/27 02:12:10;;;;;;;2.38;1.05;;;5.50;71.10;;;;;;4984006;28;20079;-72
2023/04/27 02:14:36;;;;;;;1.48;1.00;;;5.50;71.10;;;;;;4969558;28;20041;-71
2023/04/27 02:17:01;;;;;;;1.35;0.90;;;5.50;71.10;;;;;;4969207;28;20027;-72
2023/04/27 02:19:27;;;;;;;1.17;0.80;;;5.50;71.10;;;;;;4969359;28;20344;-73
2023/04/27 02:21:53;;;;;;;0.77;0.57;;;5.40;71.10;;;;;;4970062;28;20027;-73
2023/04/27 02:24:18;;;;;;;1.17;0.82;;;5.40;71.10;;;;;;4968537;28;20475;-73
2023/04/27 02:26:44;;;;;;;1.20;0.90;;;5.40;71.10;;;;;;4966165;28;20475;-67
2023/04/27 02:29:10;;;;;;;1.08;0.85;;;5.40;71.20;;;;;;4969870;28;20062;-68
2023/04/27 02:31:35;;;;;;;0.80;0.75;;;5.30;71.20;;;;;;4970402;28;20066;-68
2023/04/27 02:34:01;;;;;;;0.60;0.60;;;5.30;71.30;;;;;;4973075;28;20031;-68
2023/04/27 02:36:27;;;;;;;0.70;0.70;;;5.30;71.40;;;;;;4971861;28;20031;-68
2023/04/27 02:38:53;;;;;;;1.20;0.93;;;5.20;71.40;;;;;;4970648;28;20031;-68
2023/04/27 02:41:18;;;;;;;0.75;0.75;;;5.20;71.50;;;;;;4970335;28;20035;-68
2023/04/27 02:43:45;;;;;;;1.20;0.95;;;5.20;71.60;;;;;;4963369;28;20027;-69
2023/04/27 02:46:11;;;;;;;1.20;1.08;;;5.20;71.70;;;;;;4971037;28;20437;-69
2023/04/27 02:48:36;;;;;;;0.77;0.70;;;5.20;71.70;;;;;;4972480;28;20035;-67
2023/04/27 02:51:03;;;;;;;4.43;1.02;;;5.20;71.80;;;;;;4967863;28;20031;-67
2023/04/27 02:53:29;;;;;;;2.15;0.90;;;5.10;71.80;;;;;;4965761;28;20054;-68
2023/04/27 02:55:55;;;;;;;1.85;1.00;;;5.10;71.90;;;;;;4966477;28;20030;-68
2023/04/27 02:58:21;;;;;;;1.95;0.80;;;5.10;71.90;;;;;;4966933;28;20062;-72
2023/04/27 03:00:52;;;;;;;0.43;0.43;;;5.10;71.90;;;;;;4969673;28;20498;-68
2023/04/27 03:03:17;;;;;;;1.23;0.88;;;5.10;72.00;;;;;;4970985;28;20547;-67
2023/04/27 03:05:43;;;;;;;2.00;1.35;;;5.10;72.00;;;;;;4967393;28;20147;-72
2023/04/27 03:08:09;;;;;;;1.45;1.13;;;5.00;71.90;;;;;;4964759;28;20026;-72
2023/04/27 03:10:34;;;;;;;0.80;0.60;;;5.00;72.00;;;;;;4970860;28;20086;-72
2023/04/27 03:13:00;;;;;;;1.13;1.02;;;5.00;72.60;;;;;;4971603;28;20053;-72
2023/04/27 03:15:26;;;;;;;2.53;0.85;;;5.00;72.10;;;;;;4972685;28;20065;-72
2023/04/27 03:17:51;;;;;;;0.60;0.50;;;5.00;72.20;;;;;;4971058;28;20026;-67
2023/04/27 03:20:17;;;;;;;1.83;0.82;;;5.00;72.20;;;;;;4968666;28;20043;-71
2023/04/27 03:22:44;;;;;;;1.05;0.68;;;5.00;72.20;;;;;;4962466;28;20027;-72
2023/04/27 03:25:10;;;;;;;1.17;0.85;;;5.00;72.20;;;;;;4971970;28;20038;-72
2023/04/27 03:27:36;;;;;;;1.25;0.63;;;5.00;72.20;;;;;;4964769;28;20042;-72
2023/04/27 03:30:03;;;;;;;0.95;0.93;;;5.00;72.30;;;;;;4972602;28;20035;-71
2023/04/27 03:32:29;;;;;;;1.02;0.65;;;5.00;72.30;;;;;;4970184;28;20141;-71
2023/04/27 03:34:55;;;;;;;1.58;0.75;;;4.90;72.30;;;;;;4970845;28;20031;-71
2023/04/27 03:37:21;;;;;;;3.42;1.30;;;4.90;72.20;;;;;;4971021;28;20117;-72
2023/04/27 03:39:46;;;;;;;1.02;0.60;;;4.90;72.30;;;;;;4968121;28;20162;-71
2023/04/27 03:42:12;;;;;;;2.72;1.02;;;4.90;72.40;;;;;;4965372;28;20089;-71
2023/04/27 03:44:38;;;;;;;0.60;0.60;;;4.90;72.40;;;;;;4967164;28;20035;-71
2023/04/27 03:47:07;;;;;;;1.10;0.88;;;4.90;73.10;;;;;;4972947;28;20031;-71
2023/04/27 03:49:36;;;;;;;1.00;0.90;;;4.80;72.50;;;;;;4971395;28;20069;-71
2023/04/27 03:52:02;;;;;;;2.10;0.95;;;4.80;72.70;;;;;;4965883;28;20474;-72
2023/04/27 03:54:30;;;;;;;1.17;0.60;;;4.80;72.70;;;;;;4971249;28;20023;-72
2023/04/27 03:56:55;;;;;;;0.90;0.45;;;4.80;72.60;;;;;;4970376;28;20084;-71
2023/04/27 03:59:21;;;;;;;0.70;0.70;;;4.80;72.60;;;;;;4971921;28;20027;-71
2023/04/27 04:01:47;;;;;;;1.17;0.68;;;4.80;72.60;;;;;;4972153;28;20027;-72
2023/04/27 04:04:12;;;;;;;1.17;1.08;;;4.80;72.70;;;;;;4969630;28;20049;-72
2023/04/27 04:06:38;;;;;;;1.52;0.55;;;4.80;72.70;;;;;;4968665;28;20034;-68
2023/04/27 04:09:04;;;;;;;0.50;0.50;;;4.80;72.70;;;;;;4967547;28;20398;-68
2023/04/27 04:11:29;;;;;;;4.40;1.35;;;4.80;72.70;;;;;;4971155;28;20082;-68
2023/04/27 04:13:58;;;;;;;0.77;0.60;;;4.80;72.80;;;;;;4968535;28;20537;-71
2023/04/27 04:16:24;;;;;;;1.48;0.90;;;4.70;72.70;;;;;;4970563;28;20037;-72
2023/04/27 04:18:50;;;;;;;1.70;1.00;;;4.70;72.80;;;;;;4966972;28;20015;-72
2023/04/27 04:21:15;;;;;;;0.95;0.85;;;4.70;72.80;;;;;;4967899;28;20066;-72
2023/04/27 04:23:41;;;;;;;1.08;0.85;;;4.70;72.90;;;;;;4970045;28;20031;-72
2023/04/27 04:26:07;;;;;;;0.70;0.70;;;4.70;72.90;;;;;;4965802;28;20031;-71
2023/04/27 04:28:33;;;;;;;0.63;0.52;;;4.70;72.80;;;;;;4969059;28;20031;-67
2023/04/27 04:31:00;;;;;;;1.42;1.08;;;4.70;72.80;;;;;;4969652;28;20507;-68
2023/04/27 04:33:26;;;;;;;4.43;0.80;;;4.70;73.00;;;;;;4968644;28;20022;-72
2023/04/27 04:35:52;;;;;;;3.17;0.82;;;4.70;73.00;;;;;;4953774;28;20027;-68
2023/04/27 04:38:18;;;;;;;1.00;0.85;;;4.70;73.10;;;;;;4971204;28;20050;-67
2023/04/27 04:40:44;;;;;;;1.15;0.80;;;4.70;73.00;;;;;;4968384;28;20430;-68
2023/04/27 04:43:10;;;;;;;1.90;1.10;;;4.80;73.10;;;;;;4966518;28;20081;-72
2023/04/27 04:45:35;;;;;;;1.15;0.85;;;4.70;73.10;;;;;;4969242;28;20099;-72
2023/04/27 04:48:01;;;;;;;1.65;0.70;;;4.80;73.30;;;;;;4970982;28;20478;-72
2023/04/27 04:50:27;;;;;;;1.33;0.90;;;4.80;73.90;;;;;;4970844;28;20556;-72
2023/04/27 04:52:53;;;;;;;1.98;1.08;;;4.80;73.40;;;;;;4970384;28;20097;-68
2023/04/27 04:55:19;;;;;;;1.00;0.88;;;4.80;73.30;;;;;;4967132;28;20114;-69
2023/04/27 04:57:45;;;;;;;0.52;0.50;;;4.80;73.30;;;;;;4967996;28;20039;-69
2023/04/27 05:00:12;;;;;;;0.65;0.57;;;4.90;73.50;;;;;;4961289;28;20448;-68
2023/04/27 05:02:39;;;;;;;1.15;0.70;;;4.90;73.30;;;;;;4963107;28;20039;-69
2023/04/27 05:05:05;;;;;;;2.50;0.98;;;5.00;73.30;;;;;;4970462;28;20038;-67
2023/04/27 05:07:31;;;;;;;0.85;0.70;;;5.10;73.40;;;;;;4968097;28;20035;-70
2023/04/27 05:09:56;;;;;;;1.75;1.08;;;5.10;73.30;;;;;;4970460;28;20483;-67
2023/04/27 05:12:22;;;;;;;0.70;0.70;;;5.20;73.40;;;;;;4980751;28;20563;-67
2023/04/27 05:14:47;;;;;;;1.73;1.27;;;5.20;73.40;;;;;;4986002;28;20084;-67
2023/04/27 05:17:13;;;;;;;1.40;0.77;;;5.30;73.30;;;;;;5007316;28;20032;-68
2023/04/27 05:19:40;;;;;;;1.13;0.90;;;5.40;73.30;;;;;;5005548;28;20117;-68
2023/04/27 05:22:05;;;;;;;3.63;1.42;;;5.50;73.30;;;;;;5006127;28;20037;-68
2023/04/27 05:24:32;;;;;;;1.50;1.15;;;5.50;73.30;;;;;;5006449;28;20029;-68
2023/04/27 05:26:58;;;;;;;3.03;1.70;;;5.60;73.10;;;;;;5006021;28;20389;-68
2023/04/27 05:29:23;;;;;;;1.30;1.20;;;5.70;73.10;;;;;;4985933;28;20030;-68
2023/04/27 05:31:49;;;;;;;1.70;1.42;;;5.80;73.10;;;;;;5008152;28;20034;-68
2023/04/27 05:34:15;;;;;;;3.97;1.55;;;5.90;73.00;;;;;;4987151;28;20122;-68
2023/04/27 05:36:41;;;;;;;1.75;1.25;;;5.90;72.90;;;;;;5005285;28;20045;-68
2023/04/27 05:39:06;;;;;;;1.52;1.38;;;6.00;72.80;;;;;;4990775;28;20044;-68
2023/04/27 05:41:32;;;;;;;2.40;2.20;;;6.10;72.70;;;;;;5003708;28;20018;-69
2023/04/27 05:43:58;;;;;;;1.58;1.30;;;6.20;72.70;;;;;;5008004;28;20034;-67
2023/04/27 05:46:24;;;;;;;1.70;1.60;;;6.30;72.60;;;;;;4989612;28;20113;-68
2023/04/27 05:48:49;;;;;;;1.92;1.23;;;6.40;72.70;;;;;;4987093;28;20041;-70
2023/04/27 05:51:15;;;;;;;1.50;1.40;;;6.50;72.60;;;;;;4984858;28;20496;-68
2023/04/27 05:53:41;;;;;;;2.25;1.63;;;6.50;72.60;;;;;;4991254;28;20038;-68
2023/04/27 05:56:07;;;;;;;2.75;2.25;;;6.60;72.60;;;;;;5003588;28;20393;-70
2023/04/27 05:58:33;;;;;;;4.63;2.45;;;6.70;72.70;;;;;;4988935;28;20034;-67
2023/04/27 06:01:02;;;;;;;2.80;2.33;;;6.70;72.60;;;;;;4982346;28;20373;-71
2023/04/27 06:03:29;;;;;;;3.70;1.65;;;6.80;72.50;;;;;;5002678;28;20030;-71
2023/04/27 06:05:56;;;;;;;2.20;1.73;;;6.80;72.30;;;;;;4986537;28;20095;-71
2023/04/27 06:08:22;;;;;;;3.28;1.95;;;6.90;72.20;;;;;;5010232;28;20030;-70
2023/04/27 06:10:49;;;;;;;3.92;2.53;;;7.00;72.30;;;;;;5009435;28;20381;-66
2023/04/27 06:13:15;;;;;;;5.15;1.83;;;7.00;72.20;;;;;;5010115;28;20558;-68
2023/04/27 06:15:40;;;;;;;2.50;1.63;;;7.10;72.20;;;;;;5011742;28;20435;-68
2023/04/27 06:18:06;;;;;;;3.78;1.40;;;7.20;72.10;;;;;;5009257;28;20025;-66
2023/04/27 06:20:32;;;;;;;1.98;1.77;;;7.30;72.10;;;;;;5006785;28;20045;-72
2023/04/27 06:22:58;;;;;;;1.52;1.40;;;7.30;72.00;;;;;;5007556;28;20366;-72
2023/04/27 06:25:27;;;;;;;2.90;1.48;;;7.40;71.90;;;;;;5004858;28;20839;-72
2023/04/27 06:27:55;;;;;;;1.88;1.48;;;7.50;71.80;;;;;;4992168;28;20045;-72
2023/04/27 06:30:22;;;;;;;1.33;1.10;;;7.50;71.40;;;;;;5005751;28;20045;-71
2023/04/27 06:32:48;;;;;;;2.05;1.10;;;7.60;71.10;;;;;;5010981;28;20037;-72
2023/04/27 06:35:16;;;;;;;8.93;1.13;;;7.70;70.90;;;;;;5008711;28;20361;-72
2023/04/27 06:37:41;;;;;;;1.52;1.35;;;7.70;70.80;;;;;;5012326;28;20030;-71
2023/04/27 06:40:08;;;;;;;1.65;0.93;;;7.80;70.60;;;;;;5003393;28;20033;-71
2023/04/27 06:42:34;;;;;;;2.90;1.10;;;7.90;70.40;;;;;;4995950;28;20065;-71
2023/04/27 06:45:00;;;;;;;2.65;1.08;;;7.90;70.20;;;;;;4988835;28;20112;-70
2023/04/27 06:47:25;;;;;;;1.92;1.17;;;8.00;70.10;;;;;;5005991;28;20034;-68
2023/04/27 06:49:51;;;;;;;1.88;1.20;;;8.10;69.70;;;;;;5004473;28;20037;-70
2023/04/27 06:52:17;;;;;;;2.03;1.55;;;8.10;69.50;;;;;;5001127;28;20159;-68
2023/04/27 06:54:43;;;;;;;1.23;1.08;;;8.20;69.30;;;;;;4990422;28;20026;-70
2023/04/27 06:57:08;;;;;;;1.17;1.08;;;8.30;69.20;;;;;;5000606;28;20469;-72
2023/04/27 06:59:34;;;;;;;1.20;1.10;;;8.30;69.00;;;;;;5009047;28;20019;-67
2023/04/27 07:02:00;;;;;;;1.10;1.00;;;8.30;68.80;;;;;;5010334;28;20037;-69
2023/04/27 07:04:26;;;;;;;1.27;1.17;;;8.50;68.80;;;;;;5008265;28;20042;-69
2023/04/27 07:06:52;;;;;;;2.47;1.13;;;8.50;68.30;;;;;;4988606;28;20041;-71
2023/04/27 07:09:17;;;;;;;2.05;1.48;;;8.50;68.00;;;;;;5007681;28;20528;-68
2023/04/27 07:11:43;;;;;;;0.70;0.70;;;8.60;68.10;;;;;;5010550;28;20030;-69
2023/04/27 07:14:09;;;;;;;1.58;1.17;;;8.70;67.80;;;;;;4989320;28;20042;-71
2023/04/27 07:16:35;;;;;;;1.23;0.82;;;8.80;67.60;;;;;;5010038;28;20037;-72
2023/04/27 07:19:00;;;;;;;1.35;1.05;;;8.90;67.50;;;;;;5009056;28;20496;-71
2023/04/27 07:21:27;;;;;;;2.63;0.80;;;9.00;67.30;;;;;;5008469;28;20038;-69
2023/04/27 07:23:53;;;;;;;2.03;1.30;;;9.10;67.20;;;;;;4972562;28;20034;-69
2023/04/27 07:26:20;;;;;;;1.23;0.80;;;9.10;66.90;;;;;;5009437;28;20034;-69
2023/04/27 07:28:46;;;;;;;1.13;0.60;;;9.20;66.90;;;;;;5001850;28;20038;-70
2023/04/27 07:31:13;;;;;;;0.90;0.80;;;9.30;66.70;;;;;;5001098;28;20034;-69
2023/04/27 07:33:38;;;;;;;1.20;1.02;;;9.40;66.60;;;;;;4988772;28;20030;-69
2023/04/27 07:36:04;;;;;;;0.80;0.70;;;9.50;66.20;;;;;;5003296;28;20571;-70
2023/04/27 07:38:30;;;;;;;2.53;1.20;;;9.60;66.20;;;;;;5004346;28;20113;-69
2023/04/27 07:41:03;;;;;;;1.38;1.00;;;9.70;65.90;;;;;;5010168;28;20048;-69
2023/04/27 07:43:31;;;;;;;1.10;1.00;;;9.80;65.80;;;;;;5004436;28;20393;-70
2023/04/27 07:45:57;;;;;;;3.67;1.00;;;9.80;65.70;;;;;;5007270;28;20109;-70
2023/04/27 07:48:23;;;;;;;1.70;0.90;;;9.90;65.50;;;;;;5006229;28;20069;-69
2023/04/27 07:50:49;;;;;;;2.08;1.00;;;10.00;65.20;;;;;;5003440;28;20384;-70
2023/04/27 07:53:15;;;;;;;0.85;0.52;;;10.10;65.20;;;;;;5001957;28;20053;-69
2023/04/27 07:55:43;;;;;;;1.33;1.20;;;10.20;65.10;;;;;;5003515;28;20034;-70
2023/04/27 07:58:10;;;;;;;1.00;0.70;;;10.30;64.90;;;;;;5005989;28;20117;-69
2023/04/27 08:00:36;;;;;;;1.42;0.70;;;10.40;64.80;;;;;;5006593;28;20045;-70
2023/04/27 08:03:02;;;;;;;3.47;0.80;;;10.50;64.50;;;;;;4993086;28;20096;-71
2023/04/27 08:05:27;;;;;;;1.10;0.90;;;10.60;64.30;;;;;;5009694;28;20041;-71
2023/04/27 08:07:53;;;;;;;1.52;1.00;;;10.60;63.80;;;;;;5004332;28;20030;-71
2023/04/27 08:10:19;;;;;;;3.75;0.55;;;10.70;63.40;;;;;;4990535;28;20800;-70
2023/04/27 08:12:45;;;;;;;1.00;0.50;;;10.70;63.10;;;;;;4983980;28;20077;-70
2023/04/27 08:15:11;;;;;;;2.80;0.70;;;10.80;62.90;;;;;;5000422;28;20034;-70
2023/04/27 08:17:39;;;;;;;7.07;0.88;;;10.90;62.50;;;;;;5000367;28;20037;-70
2023/04/27 08:20:06;;;;;;;1.75;0.77;;;11.00;62.10;;;;;;4983775;28;20110;-70
2023/04/27 08:22:32;;;;;;;0.60;0.45;;;11.10;62.10;;;;;;4984709;28;20022;-71
2023/04/27 08:24:58;;;;;;;0.88;0.65;;;11.20;62.00;;;;;;4986674;28;20036;-70
2023/04/27 08:27:24;;;;;;;1.10;0.60;;;11.40;61.70;;;;;;4988029;28;20037;-70
2023/04/27 08:29:50;;;;;;;2.38;0.75;;;11.50;61.40;;;;;;5008509;28;20014;-69
2023/04/27 08:32:16;;;;;;;5.47;1.10;;;11.60;61.20;;;;;;4991735;28;20107;-70
2023/04/27 08:34:43;;;;;;;0.75;0.57;;;11.80;60.60;;;;;;5006797;28;20396;-70
2023/04/27 08:37:09;;;;;;;0.80;0.70;;;11.90;60.40;;;;;;4989244;28;20036;-69
2023/04/27 08:39:35;;;;;;;0.85;0.50;;;12.00;60.00;;;;;;4979387;28;20038;-70
2023/04/27 08:42:00;;;;;;;1.85;0.90;;;12.10;59.80;;;;;;5005927;28;20457;-70
2023/04/27 08:44:26;;;;;;;0.93;0.63;;;12.20;59.70;;;;;;4987146;28;20037;-70
2023/04/27 08:46:52;;;;;;;1.40;0.95;;;12.30;59.60;;;;;;5010300;28;20030;-70
2023/04/27 08:49:17;;;;;;;0.93;0.60;;;12.40;59.70;;;;;;5000084;28;20482;-70
2023/04/27 08:51:43;;;;;;;1.35;0.60;;;12.40;58.90;;;;;;5002513;28;20690;-70
2023/04/27 08:54:09;;;;;;;2.85;0.95;;;12.40;58.60;;;;;;5001545;28;20042;-70
2023/04/27 08:56:35;;;;;;;0.70;0.60;;;12.40;58.30;;;;;;5004674;28;20097;-71
2023/04/27 08:59:04;;;;;;;1.10;1.00;;;12.40;57.80;;;;;;5002270;28;20384;-70
2023/04/27 09:01:31;;;;;;;0.82;0.70;;;12.40;57.40;;;;;;5001126;28;20106;-70
2023/04/27 09:04:06;;;;;;;2.85;0.90;;;12.40;56.90;;;;;;4988211;28;20396;-70
2023/04/27 09:06:33;;;;;;;0.98;0.70;;;12.40;55.80;;;;;;5009643;28;20088;-70
2023/04/27 09:09:00;;;;;;;2.15;0.80;;;12.50;56.20;;;;;;4991096;28;20030;-71
2023/04/27 09:11:33;;;;;;;1.10;1.00;;;12.50;56.20;;;;;;5003889;28;20036;-71
2023/04/27 09:14:02;;;;;;;0.95;0.50;;;12.60;55.80;;;;;;5001215;28;20038;-70
2023/04/27 09:16:29;;;;;;;4.38;0.60;;;12.60;54.90;;;;;;5001491;28;20031;-70
2023/04/27 09:18:56;;;;;;;0.82;0.50;;;12.70;55.50;;;;;;5009826;28;20030;-71
2023/04/27 09:21:27;;;;;;;1.05;0.57;;;12.80;55.40;;;;;;5002717;28;20022;-71
2023/04/27 09:23:53;;;;;;;0.85;0.75;;;13.00;55.30;;;;;;5000813;28;20018;-69
2023/04/27 09:26:24;;;;;;;1.90;0.95;;;13.10;55.00;;;;;;5009677;28;20038;-69
2023/04/27 09:28:57;;;;;;;0.63;0.60;;;13.30;54.90;;;;;;5008791;28;20481;-69
2023/04/27 09:31:34;;;;;;;0.55;0.40;;;13.40;54.60;;;;;;4972986;28;20026;-70
2023/04/27 09:34:00;;;;;;;1.75;0.80;;;13.60;54.40;;;;;;4997396;28;20117;-69
2023/04/27 09:36:26;;;;;;;2.72;1.13;;;13.70;54.10;;;;;;4993691;28;20113;-69
2023/04/27 09:38:52;;;;;;;1.15;0.80;;;13.80;53.30;;;;;;4992984;28;20041;-69
2023/04/27 09:41:18;;;;;;;2.20;1.08;;;13.80;53.30;;;;;;5004466;28;20437;-69
2023/04/27 09:43:47;;;;;;;1.65;0.60;;;13.90;53.00;;;;;;4994935;28;20030;-69
2023/04/27 09:46:13;;;;;;;1.05;0.60;;;13.90;52.80;;;;;;5007855;28;20045;-69
2023/04/27 09:48:40;;;;;;;0.95;0.63;;;14.00;52.60;;;;;;5006556;28;20038;-70
2023/04/27 09:51:07;;;;;;;0.85;0.50;;;14.10;52.60;;;;;;5009950;28;20559;-69
2023/04/27 09:53:40;;;;;;;0.80;0.80;;;14.20;52.40;;;;;;5012763;28;20022;-69
2023/04/27 09:56:27;;;;;;;1.17;0.77;;;14.40;51.80;;;;;;5000254;28;20068;-70
2023/04/27 09:59:12;;;;;;;1.15;0.90;;;14.50;51.60;;;;;;5000209;28;20061;-70
2023/04/27 10:01:46;;;;;;;2.25;0.90;;;14.60;51.10;;;;;;5007873;28;20036;-71
2023/04/27 10:04:30;;;;;;;1.48;0.70;;;14.70;51.00;;;;;;5007801;28;20026;-70
2023/04/27 10:07:00;;;;;;;0.63;0.63;;;14.80;50.50;;;;;;5005218;28;20037;-70
2023/04/27 10:09:34;;;;;;;2.90;0.35;;;14.80;50.80;;;;;;5003654;28;20444;-70
2023/04/27 10:12:17;;;;;;;0.55;0.45;;;14.80;50.70;;;;;;5002870;28;20045;-70
2023/04/27 10:14:59;;;;;;;0.40;0.40;;;15.00;50.70;;;;;;5003523;28;20042;-71
2023/04/27 10:17:30;;;;;;;0.82;0.52;;;15.20;50.40;;;;;;5007415;28;20552;-70
2023/04/27 10:19:58;;;;;;;0.93;0.82;;;15.40;49.70;;;;;;4986360;28;20022;-70
2023/04/27 10:22:36;;;;;;;3.70;1.65;;;15.40;49.10;;;;;;5000526;28;20033;-69
2023/04/27 10:25:21;;;;;;;2.75;0.93;;;15.40;48.30;;;;;;5004776;28;20026;-70
2023/04/27 10:27:59;;;;;;;1.25;0.70;;;15.30;47.30;;;;;;4990065;28;20021;-70
2023/04/27 10:30:30;;;;;;;0.57;0.57;;;15.10;47.50;;;;;;4991981;28;20149;-71
2023/04/27 10:32:58;;;;;;;0.90;0.63;;;15.20;47.70;;;;;;5003432;28;20026;-70
2023/04/27 10:35:41;;;;;;;1.88;0.88;;;15.30;48.10;;;;;;5010771;28;20095;-71
2023/04/27 10:38:16;;;;;;;0.52;0.52;;;15.40;47.30;;;;;;5012128;28;20018;-71
2023/04/27 10:40:57;;;;;;;0.68;0.60;;;15.60;47.00;;;;;;5008936;28;20057;-70
2023/04/27 10:43:27;;;;;;;0.68;0.60;;;15.70;46.70;;;;;;5012146;28;20049;-71
2023/04/27 10:45:54;;;;;;;0.57;0.57;;;15.70;46.40;;;;;;5011423;28;20097;-71
2023/04/27 10:48:20;;;;;;;1.95;0.60;;;15.80;46.40;;;;;;5009003;28;20026;-71
2023/04/27 10:50:46;;;;;;;1.17;1.00;;;15.90;46.10;;;;;;4973593;28;20038;-69
2023/04/27 10:53:15;;;;;;;0.40;0.40;;;16.00;46.10;;;;;;4992912;28;20036;-69
2023/04/27 10:55:41;;;;;;;1.17;0.65;;;16.20;46.20;;;;;;5006036;28;20381;-69
2023/04/27 10:58:07;;;;;;;0.52;0.45;;;16.40;46.00;;;;;;5005984;28;20026;-70
2023/04/27 11:00:43;;;;;;;1.05;0.77;;;16.50;45.60;;;;;;5002455;28;20034;-70
2023/04/27 11:03:15;;;;;;;1.00;0.65;;;16.50;45.10;;;;;;5005196;28;20362;-70
2023/04/27 11:05:43;;;;;;;0.50;0.50;;;16.60;44.70;;;;;;5002383;28;21214;-70
2023/04/27 11:08:11;;;;;;;1.25;0.85;;;16.70;44.80;;;;;;5004534;28;20026;-69
2023/04/27 11:10:46;;;;;;;0.82;0.80;;;16.80;45.10;;;;;;5009345;28;20061;-69
2023/04/27 11:13:16;;;;;;;2.22;0.77;;;16.90;44.80;;;;;;5003809;28;20073;-70
2023/04/27 11:15:46;;;;;;;1.50;1.20;;;16.90;44.70;;;;;;5011467;28;20029;-70
2023/04/27 11:18:12;;;;;;;1.65;0.70;;;17.00;44.80;;;;;;4998033;28;20081;-70
2023/04/27 11:20:38;;;;;;;1.13;0.90;;;17.10;44.70;;;;;;5006584;28;20425;-70
2023/04/27 11:23:04;;;;;;;1.10;0.77;;;17.20;44.50;;;;;;5009625;28;20042;-69
2023/04/27 11:25:31;;;;;;;0.68;0.68;;;17.20;44.30;;;;;;5006439;28;20576;-69
2023/04/27 11:27:56;;;;;;;1.70;0.80;;;17.30;43.90;;;;;;4992594;28;20038;-69
2023/04/27 11:30:23;;;;;;;1.42;0.93;;;17.30;43.70;;;;;;4991220;28;20044;-69
2023/04/27 11:32:49;;;;;;;2.45;0.75;;;17.40;43.80;;;;;;4999011;28;20445;-70
2023/04/27 11:35:17;;;;;;;0.70;0.52;;;17.50;43.70;;;;;;5000658;28;20080;-70
2023/04/27 11:37:42;;;;;;;0.70;0.50;;;17.60;43.40;;;;;;5006404;28;20479;-70
2023/04/27 11:40:10;;;;;;;0.80;0.60;;;17.70;43.40;;;;;;4996158;28;20034;-70
2023/04/27 11:42:35;;;;;;;0.75;0.65;;;17.80;42.40;;;;;;5008269;28;20033;-70
2023/04/27 11:45:06;;;;;;;0.73;0.73;;;17.80;42.70;;;;;;5005462;28;20026;-70
2023/04/27 11:47:34;;;;;;;0.60;0.60;;;17.80;42.10;;;;;;4992689;28;20014;-70
2023/04/27 11:50:05;;;;;;;1.00;0.65;;;17.80;41.40;;;;;;4996040;28;20034;-70
2023/04/27 11:52:35;;;;;;;0.98;0.60;;;18.00;41.80;;;;;;5005241;28;20050;-70
2023/04/27 11:55:07;;;;;;;2.15;0.90;;;18.20;41.70;;;;;;5002317;28;20482;-71
2023/04/27 11:57:34;;;;;;;1.52;0.90;;;18.30;41.20;;;;;;5005166;28;20121;-70
2023/04/27 12:00:09;;;;;;;0.90;0.80;;;18.40;41.20;;;;;;4998813;28;20485;-70
2023/04/27 12:02:35;;;;;;;1.63;0.75;;;18.60;41.10;;;;;;5003261;28;20389;-70
2023/04/27 12:05:06;;;;;;;0.70;0.60;;;18.60;41.20;;;;;;5007912;28;20029;-70
2023/04/27 12:07:33;;;;;;;1.10;0.95;;;18.60;40.80;;;;;;4988978;28;20031;-70
2023/04/27 12:09:58;;;;;;;1.90;1.30;;;18.30;40.50;;;;;;5001417;28;20080;-71
2023/04/27 12:12:26;;;;;;;0.55;0.55;;;18.10;40.40;;;;;;5009681;28;20033;-71
2023/04/27 12:14:52;;;;;;;3.03;0.93;;;17.90;40.80;;;;;;5010526;28;20107;-71
2023/04/27 12:17:18;;;;;;;0.52;0.50;;;18.00;40.60;;;;;;5001775;28;20062;-71
2023/04/27 12:19:44;;;;;;;0.93;0.88;;;18.00;40.70;;;;;;4985767;28;20389;-70
2023/04/27 12:22:10;;;;;;;0.70;0.50;;;18.30;40.70;;;;;;5007855;28;20481;-71
2023/04/27 12:24:36;;;;;;;2.00;0.60;;;18.60;40.60;;;;;;5010751;28;20022;-69
2023/04/27 12:27:03;;;;;;;1.98;0.88;;;18.80;40.40;;;;;;5010388;28;20034;-69
2023/04/27 12:29:29;;;;;;;1.98;0.90;;;19.00;40.10;;;;;;4991432;28;20393;-70
2023/04/27 12:31:54;;;;;;;1.05;0.75;;;19.20;40.50;;;;;;5010031;28;20025;-69
2023/04/27 12:34:20;;;;;;;1.02;0.80;;;19.30;39.30;;;;;;5009630;28;20037;-69
2023/04/27 12:36:46;;;;;;;0.45;0.45;;;19.50;39.20;;;;;;5007488;28;20034;-70
2023/04/27 12:39:17;;;;;;;1.80;0.90;;;19.60;38.50;;;;;;5009477;28;20525;-70
2023/04/27 12:41:44;;;;;;;0.98;0.80;;;19.60;38.60;;;;;;5004735;28;20385;-70
2023/04/27 12:44:11;;;;;;;2.20;0.60;;;19.60;38.70;;;;;;5000996;28;20049;-70
2023/04/27 12:46:40;;;;;;;2.65;0.75;;;19.60;38.70;;;;;;5006498;28;20109;-70
2023/04/27 12:49:07;;;;;;;1.08;0.82;;;19.60;38.50;;;;;;4989943;28;20057;-70
2023/04/27 12:51:34;;;;;;;1.38;0.93;;;19.50;38.40;;;;;;4988782;28;20073;-69